createdAt,value
2022-10-23T00:01:52.700Z,100721.22
2022-10-23T00:07:00.501Z,100727.19
2022-10-23T00:13:46.853Z,100730.69
2022-10-23T00:19:24.245Z,100728.91
2022-10-23T00:25:20.554Z,100741.13
2022-10-23T00:54:01.198Z,100749.69
2022-10-23T01:00:39.622Z,100754.84
2022-10-23T01:05:53.109Z,100760.91
2022-10-23T01:12:37.520Z,100776.56
2022-10-23T01:26:47.201Z,100782.69
2022-10-23T01:40:02.226Z,100778.31
2022-10-23T01:53:11.753Z,100784.41
2022-10-23T01:58:22.239Z,100788.72
2022-10-23T02:11:57.569Z,100796.50
2022-10-23T02:34:21.766Z,100802.72
2022-10-23T02:47:46.330Z,100812.34
2022-10-23T03:01:40.365Z,100811.56
2022-10-23T03:23:32.901Z,100818.78
2022-10-23T03:29:33.912Z,100826.63
2022-10-23T03:36:19.692Z,100827.41
2022-10-23T03:58:25.929Z,100846.94
2022-10-23T04:04:03.539Z,100865.28
2022-10-23T04:18:40.974Z,100861.69
2022-10-23T04:32:09.258Z,100871.34
2022-10-23T04:37:26.045Z,100866.16
2022-10-23T04:42:36.257Z,100869.69
2022-10-23T04:56:25.624Z,100874.22
2022-10-23T05:03:29.767Z,100873.44
2022-10-23T05:09:01.335Z,100886.50
2022-10-23T05:29:53.690Z,100911.16
2022-10-23T06:06:30.063Z,100912.97
2022-10-23T06:12:02.482Z,100921.59
2022-10-23T06:17:16.806Z,100925.06
2022-10-23T06:23:41.990Z,100930.19
2022-10-23T06:38:18.162Z,100949.38
2022-10-23T06:43:33.778Z,100944.88
2022-10-23T06:50:15.748Z,100934.22
2022-10-23T06:55:25.632Z,100936.75
2022-10-23T07:16:43.890Z,100937.91
2022-10-23T07:30:39.409Z,100936.09
2022-10-23T07:35:51.023Z,100931.66
2022-10-23T07:42:45.549Z,100926.22
2022-10-23T07:47:55.432Z,100926.00
2022-10-23T07:55:31.722Z,100928.47
2022-10-23T08:02:25.957Z,100927.34
2022-10-23T08:30:23.241Z,100931.22
2022-10-23T08:36:20.114Z,100932.59
2022-10-23T09:06:26.496Z,100944.47
2022-10-23T09:11:51.985Z,100947.94
2022-10-23T09:17:28.469Z,100944.38
2022-10-23T09:31:03.855Z,100959.34
2022-10-23T09:36:24.665Z,100963.66
2022-10-23T09:49:36.973Z,100961.59
2022-10-23T10:03:55.894Z,100959.03
2022-10-23T10:17:26.386Z,100954.50
2022-10-23T10:37:31.253Z,100947.41
2022-10-23T10:51:40.120Z,100940.91
2022-10-23T11:04:16.018Z,100941.84
2022-10-23T11:15:53.284Z,100927.78
2022-10-23T11:21:32.625Z,100926.88
2022-10-23T11:27:54.168Z,100938.84
2022-10-23T11:34:18.077Z,100928.13
2022-10-23T11:39:32.526Z,100934.41
2022-10-23T11:44:51.786Z,100947.56
2022-10-23T11:50:28.886Z,100940.66
2022-10-23T11:55:36.669Z,100931.88
2022-10-23T12:00:57.256Z,100937.22
2022-10-23T12:06:08.475Z,100930.94
2022-10-23T12:11:44.501Z,100921.28
2022-10-23T12:16:50.897Z,100930.06
2022-10-23T12:22:02.394Z,100931.75
2022-10-23T12:27:31.219Z,100927.28
2022-10-23T12:33:21.723Z,100929.00
2022-10-23T12:38:33.876Z,100925.53
2022-10-23T12:44:02.172Z,100923.75
2022-10-23T12:49:28.699Z,100925.41
2022-10-23T12:54:48.369Z,100927.16
2022-10-23T13:00:27.841Z,100923.66
2022-10-23T13:05:41.427Z,100928.88
2022-10-23T13:11:01.878Z,100925.41
2022-10-23T13:16:28.983Z,100924.50
2022-10-23T13:21:36.282Z,100920.09
2022-10-23T13:26:45.525Z,100915.78
2022-10-23T13:31:53.458Z,100924.44
2022-10-23T13:37:04.703Z,100914.78
2022-10-23T13:42:17.469Z,100911.19
2022-10-23T13:47:25.245Z,100904.97
2022-10-23T13:52:33.084Z,100921.47
2022-10-23T13:57:39.370Z,100916.16
2022-10-23T14:02:48.001Z,100918.00
2022-10-23T14:07:54.392Z,100910.97
2022-10-23T14:13:00.466Z,100909.38
2022-10-23T14:18:08.649Z,100911.13
2022-10-23T14:23:15.512Z,100922.56
2022-10-23T14:28:24.725Z,100925.19
2022-10-23T14:33:32.752Z,100924.41
2022-10-23T14:38:39.967Z,100919.16
2022-10-23T14:43:46.300Z,100920.16
2022-10-23T14:48:59.874Z,100910.56
2022-10-23T14:54:09.470Z,100911.53
2022-10-23T14:59:16.624Z,100912.44
2022-10-23T15:04:26.157Z,100909.88
2022-10-23T15:09:35.475Z,100904.66
2022-10-23T15:14:49.332Z,100914.28
2022-10-23T15:20:01.127Z,100903.00
2022-10-23T15:25:14.224Z,100907.41
2022-10-23T15:30:26.454Z,100915.28
2022-10-23T15:35:34.230Z,100909.25
2022-10-23T15:40:45.490Z,100920.63
2022-10-23T15:45:51.554Z,100916.34
2022-10-23T15:51:00.304Z,100919.78
2022-10-23T15:56:08.095Z,100919.00
2022-10-23T16:01:15.249Z,100910.44
2022-10-23T16:06:33.851Z,100914.72
2022-10-23T16:11:42.948Z,100920.88
2022-10-23T16:16:53.919Z,100926.25
2022-10-23T16:22:03.515Z,100917.53
2022-10-23T16:27:10.416Z,100914.94
2022-10-23T16:32:17.736Z,100917.56
2022-10-23T16:37:26.955Z,100913.22
2022-10-23T16:43:03.664Z,100922.00
2022-10-23T16:48:18.724Z,100936.97
2022-10-23T16:53:30.894Z,100947.47
2022-10-23T16:58:38.210Z,100951.88
2022-10-23T17:03:49.000Z,100944.91
2022-10-23T17:08:58.279Z,100946.72
2022-10-23T17:14:29.781Z,100946.72
2022-10-23T17:19:45.244Z,100941.69
2022-10-23T17:24:54.630Z,100938.31
2022-10-23T17:30:01.604Z,100939.22
2022-10-23T17:35:14.004Z,100934.91
2022-10-23T17:40:25.091Z,100936.75
2022-10-23T17:45:34.587Z,100940.38
2022-10-23T17:50:42.524Z,100933.75
2022-10-23T17:55:51.009Z,100928.53
2022-10-23T18:00:57.698Z,100922.44
2022-10-23T18:06:09.822Z,100923.50
2022-10-23T18:11:22.166Z,100932.34
2022-10-23T18:16:29.670Z,100927.19
2022-10-23T18:21:38.633Z,100929.13
2022-10-23T18:26:48.801Z,100924.94
2022-10-23T18:31:57.029Z,100936.06
2022-10-23T18:37:07.700Z,100927.88
2022-10-23T18:42:15.854Z,100931.06
2022-10-23T18:47:23.053Z,100921.19
2022-10-23T18:52:33.829Z,100929.38
2022-10-23T18:57:43.484Z,100942.22
2022-10-23T19:02:52.420Z,100934.59
2022-10-23T19:08:01.472Z,100941.44
2022-10-23T19:13:10.778Z,100938.81
2022-10-23T19:18:18.111Z,100942.31
2022-10-23T19:23:27.496Z,100938.25
2022-10-23T19:28:37.677Z,100940.19
2022-10-23T19:33:44.669Z,100931.91
2022-10-23T19:38:53.079Z,100934.72
2022-10-23T19:44:02.791Z,100927.06
2022-10-23T19:49:11.634Z,100918.09
2022-10-23T19:54:19.944Z,100917.09
2022-10-23T19:59:28.187Z,100924.47
2022-10-23T20:04:36.982Z,100909.63
2022-10-23T20:09:43.523Z,100903.44
2022-10-23T20:14:54.691Z,100908.91
2022-10-23T20:20:01.842Z,100900.06
2022-10-23T20:25:10.264Z,100889.78
2022-10-23T20:30:18.527Z,100887.41
2022-10-23T20:35:25.342Z,100888.31
2022-10-23T20:40:31.864Z,100885.63
2022-10-23T20:45:41.207Z,100882.28
2022-10-23T20:50:48.677Z,100878.88
2022-10-23T20:55:55.113Z,100876.75
2022-10-23T21:01:06.822Z,100880.25
2022-10-23T21:06:16.242Z,100875.84
2022-10-23T21:11:22.525Z,100874.91
2022-10-23T21:16:33.431Z,100872.47
2022-10-23T21:21:39.968Z,100864.75
2022-10-23T21:26:46.517Z,100862.19
2022-10-23T21:32:01.387Z,100865.47
2022-10-23T21:37:14.964Z,100866.06
2022-10-23T21:42:22.007Z,100880.69
2022-10-23T21:47:31.338Z,100880.50
2022-10-23T21:52:37.304Z,100869.31
2022-10-23T21:57:43.412Z,100865.28
2022-10-23T22:02:51.655Z,100865.00
2022-10-23T22:07:57.881Z,100863.19
2022-10-23T22:13:03.664Z,100870.94
2022-10-23T22:18:11.912Z,100876.94
2022-10-23T22:23:18.092Z,100867.50
2022-10-23T22:28:24.693Z,100867.41
2022-10-23T22:33:34.222Z,100865.81
2022-10-23T22:38:40.131Z,100845.25
2022-10-23T22:43:46.555Z,100852.19
2022-10-23T22:48:54.364Z,100838.50
2022-10-23T22:54:01.384Z,100831.66
2022-10-23T22:59:07.492Z,100841.66
2022-10-23T23:09:46.514Z,100837.38
2022-10-23T23:14:52.443Z,100828.75
2022-10-23T23:20:00.456Z,100848.75
2022-10-23T23:25:07.504Z,100851.13
2022-10-23T23:30:13.923Z,100829.78
2022-10-23T23:35:22.161Z,100831.81
2022-10-23T23:40:28.199Z,100816.81
2022-10-23T23:45:35.321Z,100825.50
2022-10-23T23:50:43.081Z,100830.50
2022-10-23T23:55:49.177Z,100830.03
